N402NE KTIF-KOMA
Flight info
| Callsign | N402NE |
|---|---|
| Flight time | 0h 45m |
| Altitude | 29000 |
| Route | NUXRO OLU HOWRY HOWRY3 |
| Aircraft | C510/L-SDFGRWY/LB1 |
Departure
| Time | 2026-05-07 22:07 |
|---|---|
| Airport | Thomas County Airport (KTIF) |
Arrival
| Time | 2026-05-07 22:52 |
|---|---|
| Airport | Eppley Airfield (KOMA) |
| Time | Latitude | Longitude | Altitude | Speed | Heading |
|---|---|---|---|---|---|
| 2026-05-07 21:58 | 41.96369 | -100.56818 | 2919 ft | 0 kts | 207° |
| 2026-05-07 22:03 | 41.96365 | -100.56820 | 2920 ft | 1 kts | 178° |
| 2026-05-07 22:03 | 41.96355 | -100.56799 | 2901 ft | 7 kts | 113° |
| 2026-05-07 22:03 | 41.96314 | -100.56768 | 2921 ft | 10 kts | 208° |
| 2026-05-07 22:04 | 41.96247 | -100.56817 | 2924 ft | 8 kts | 208° |
| 2026-05-07 22:04 | 41.96242 | -100.56821 | 2924 ft | 0 kts | 208° |
| 2026-05-07 22:05 | 41.96221 | -100.56835 | 2925 ft | 9 kts | 206° |
| 2026-05-07 22:05 | 41.96165 | -100.56773 | 2922 ft | 18 kts | 118° |
| 2026-05-07 22:06 | 41.96090 | -100.56589 | 2918 ft | 24 kts | 118° |
| 2026-05-07 22:06 | 41.96021 | -100.56415 | 2914 ft | 16 kts | 115° |
| 2026-05-07 22:06 | 41.95995 | -100.56360 | 2913 ft | 1 kts | 236° |
| 2026-05-07 22:06 | 41.95998 | -100.56375 | 2912 ft | 5 kts | 302° |
| 2026-05-07 22:07 | 41.96100 | -100.56614 | 2919 ft | 62 kts | 298° |
| 2026-05-07 22:07 | 41.96406 | -100.57360 | 2951 ft | 115 kts | 298° |
| 2026-05-07 22:07 | 41.96824 | -100.58415 | 3291 ft | 140 kts | 298° |
| 2026-05-07 22:07 | 41.97265 | -100.59689 | 3794 ft | 161 kts | 296° |
| 2026-05-07 22:08 | 41.97681 | -100.61135 | 4288 ft | 173 kts | 276° |
| 2026-05-07 22:08 | 41.97315 | -100.62689 | 4782 ft | 185 kts | 231° |
| 2026-05-07 22:08 | 41.96185 | -100.63530 | 5313 ft | 191 kts | 191° |
| 2026-05-07 22:08 | 41.94849 | -100.63671 | 5895 ft | 194 kts | 185° |
| 2026-05-07 22:09 | 41.93500 | -100.63802 | 6475 ft | 196 kts | 181° |
| 2026-05-07 22:09 | 41.92219 | -100.63189 | 7006 ft | 202 kts | 142° |
| 2026-05-07 22:09 | 41.91500 | -100.61579 | 7575 ft | 207 kts | 103° |
| 2026-05-07 22:09 | 41.91474 | -100.59639 | 8113 ft | 210 kts | 88° |
| 2026-05-07 22:10 | 41.91317 | -100.57682 | 8676 ft | 212 kts | 104° |
| 2026-05-07 22:10 | 41.90926 | -100.55763 | 9240 ft | 215 kts | 106° |
| 2026-05-07 22:10 | 41.90576 | -100.53801 | 9841 ft | 218 kts | 104° |
| 2026-05-07 22:10 | 41.90228 | -100.51807 | 10352 ft | 221 kts | 104° |
| 2026-05-07 22:11 | 41.89857 | -100.49783 | 10855 ft | 225 kts | 104° |
| 2026-05-07 22:11 | 41.89487 | -100.47718 | 11343 ft | 230 kts | 103° |
| 2026-05-07 22:11 | 41.89108 | -100.45610 | 11846 ft | 235 kts | 103° |
| 2026-05-07 22:11 | 41.88721 | -100.43468 | 12363 ft | 239 kts | 103° |
| 2026-05-07 22:12 | 41.88326 | -100.41280 | 12859 ft | 243 kts | 102° |
| 2026-05-07 22:12 | 41.87924 | -100.39054 | 13377 ft | 247 kts | 102° |
| 2026-05-07 22:12 | 41.87513 | -100.36794 | 13866 ft | 251 kts | 102° |
| 2026-05-07 22:12 | 41.87100 | -100.34503 | 14338 ft | 253 kts | 101° |
| 2026-05-07 22:13 | 41.86793 | -100.32207 | 14783 ft | 254 kts | 96° |
| 2026-05-07 22:13 | 41.86511 | -100.29832 | 15276 ft | 256 kts | 97° |
| 2026-05-07 22:13 | 41.86205 | -100.27503 | 15754 ft | 257 kts | 98° |
| 2026-05-07 22:13 | 41.85901 | -100.25132 | 16223 ft | 259 kts | 97° |
| 2026-05-07 22:14 | 41.85600 | -100.22744 | 16695 ft | 261 kts | 97° |
| 2026-05-07 22:14 | 41.85293 | -100.20340 | 17169 ft | 262 kts | 97° |
| 2026-05-07 22:14 | 41.84984 | -100.17923 | 17636 ft | 264 kts | 97° |
| 2026-05-07 22:14 | 41.84672 | -100.15485 | 18114 ft | 266 kts | 97° |
| 2026-05-07 22:15 | 41.84358 | -100.13032 | 18516 ft | 268 kts | 97° |
| 2026-05-07 22:15 | 41.84040 | -100.10558 | 18926 ft | 270 kts | 97° |
| 2026-05-07 22:15 | 41.83721 | -100.08071 | 19321 ft | 272 kts | 97° |
| 2026-05-07 22:15 | 41.83399 | -100.05564 | 19734 ft | 274 kts | 97° |
| 2026-05-07 22:16 | 41.83072 | -100.03032 | 20148 ft | 276 kts | 97° |
| 2026-05-07 22:16 | 41.82743 | -100.00483 | 20564 ft | 279 kts | 97° |
| 2026-05-07 22:16 | 41.82410 | -99.97916 | 20995 ft | 281 kts | 97° |
| 2026-05-07 22:16 | 41.82075 | -99.95322 | 21410 ft | 283 kts | 97° |
| 2026-05-07 22:17 | 41.81735 | -99.92714 | 21842 ft | 286 kts | 97° |
| 2026-05-07 22:17 | 41.81393 | -99.90078 | 22281 ft | 288 kts | 97° |
| 2026-05-07 22:17 | 41.81046 | -99.87425 | 22710 ft | 291 kts | 97° |
| 2026-05-07 22:17 | 41.80696 | -99.84745 | 23139 ft | 293 kts | 97° |
| 2026-05-07 22:18 | 41.80343 | -99.82048 | 23553 ft | 296 kts | 97° |
| 2026-05-07 22:18 | 41.79626 | -99.76586 | 24279 ft | 299 kts | 97° |
| 2026-05-07 22:18 | 41.79264 | -99.73840 | 24636 ft | 300 kts | 97° |
| 2026-05-07 22:19 | 41.78901 | -99.71079 | 24988 ft | 302 kts | 97° |
| 2026-05-07 22:19 | 41.78532 | -99.68299 | 25325 ft | 303 kts | 97° |
| 2026-05-07 22:19 | 41.78164 | -99.65511 | 25653 ft | 305 kts | 97° |
| 2026-05-07 22:19 | 41.77791 | -99.62707 | 25973 ft | 307 kts | 97° |
| 2026-05-07 22:20 | 41.77417 | -99.59886 | 26296 ft | 308 kts | 97° |
| 2026-05-07 22:20 | 41.77040 | -99.57059 | 26603 ft | 309 kts | 97° |
| 2026-05-07 22:20 | 41.76661 | -99.54220 | 26897 ft | 311 kts | 97° |
| 2026-05-07 22:20 | 41.76278 | -99.51360 | 27182 ft | 312 kts | 97° |
| 2026-05-07 22:21 | 41.75893 | -99.48490 | 27469 ft | 314 kts | 97° |
| 2026-05-07 22:21 | 41.75507 | -99.45611 | 27744 ft | 315 kts | 97° |
| 2026-05-07 22:21 | 41.75119 | -99.42715 | 28001 ft | 317 kts | 97° |
| 2026-05-07 22:21 | 41.74725 | -99.39799 | 28248 ft | 318 kts | 97° |
| 2026-05-07 22:22 | 41.74330 | -99.36877 | 28460 ft | 321 kts | 97° |
| 2026-05-07 22:22 | 41.73929 | -99.33912 | 28597 ft | 326 kts | 97° |
| 2026-05-07 22:22 | 41.73523 | -99.30913 | 28743 ft | 329 kts | 97° |
| 2026-05-07 22:22 | 41.73110 | -99.27883 | 28879 ft | 332 kts | 97° |
| 2026-05-07 22:23 | 41.72694 | -99.24815 | 28896 ft | 339 kts | 98° |
| 2026-05-07 22:23 | 41.71831 | -99.18497 | 28898 ft | 351 kts | 98° |
| 2026-05-07 22:24 | 41.70937 | -99.11988 | 28895 ft | 360 kts | 98° |
| 2026-05-07 22:24 | 41.70019 | -99.05327 | 28894 ft | 367 kts | 98° |
| 2026-05-07 22:25 | 41.69083 | -98.98566 | 28894 ft | 372 kts | 98° |
| 2026-05-07 22:25 | 41.68138 | -98.91765 | 28898 ft | 376 kts | 99° |
| 2026-05-07 22:26 | 41.67172 | -98.84857 | 28906 ft | 379 kts | 99° |
| 2026-05-07 22:26 | 41.66196 | -98.77900 | 28898 ft | 382 kts | 99° |
| 2026-05-07 22:27 | 41.65209 | -98.70900 | 28900 ft | 383 kts | 99° |
| 2026-05-07 22:27 | 41.64215 | -98.63887 | 28900 ft | 385 kts | 99° |
| 2026-05-07 22:28 | 41.63215 | -98.56854 | 28902 ft | 386 kts | 99° |
| 2026-05-07 22:28 | 41.62207 | -98.49804 | 28906 ft | 386 kts | 100° |
| 2026-05-07 22:29 | 41.61194 | -98.42749 | 28903 ft | 387 kts | 100° |
| 2026-05-07 22:29 | 41.60175 | -98.35689 | 28908 ft | 387 kts | 100° |
| 2026-05-07 22:30 | 41.59151 | -98.28620 | 28905 ft | 388 kts | 100° |
| 2026-05-07 22:30 | 41.58123 | -98.21548 | 28905 ft | 388 kts | 100° |
| 2026-05-07 22:31 | 41.57087 | -98.14469 | 28909 ft | 388 kts | 100° |
| 2026-05-07 22:31 | 41.56047 | -98.07393 | 28905 ft | 389 kts | 101° |
| 2026-05-07 22:32 | 41.55003 | -98.00314 | 28911 ft | 389 kts | 101° |
| 2026-05-07 22:32 | 41.54129 | -97.94415 | 28901 ft | 389 kts | 101° |
| 2026-05-07 22:33 | 41.53076 | -97.87332 | 28909 ft | 389 kts | 101° |
| 2026-05-07 22:33 | 41.52015 | -97.80240 | 28782 ft | 392 kts | 101° |
| 2026-05-07 22:33 | 41.51478 | -97.76650 | 28368 ft | 397 kts | 101° |
| 2026-05-07 22:34 | 41.50931 | -97.73019 | 27966 ft | 400 kts | 101° |
| 2026-05-07 22:34 | 41.50383 | -97.69379 | 27567 ft | 400 kts | 101° |
| 2026-05-07 22:34 | 41.49835 | -97.65746 | 27170 ft | 400 kts | 101° |
| 2026-05-07 22:34 | 41.49284 | -97.62105 | 26780 ft | 399 kts | 101° |
| 2026-05-07 22:35 | 41.48735 | -97.58486 | 26403 ft | 399 kts | 101° |
| 2026-05-07 22:35 | 41.48185 | -97.54858 | 26022 ft | 398 kts | 101° |
| 2026-05-07 22:35 | 41.47635 | -97.51255 | 25647 ft | 397 kts | 101° |
| 2026-05-07 22:35 | 41.47085 | -97.47654 | 25274 ft | 396 kts | 101° |
| 2026-05-07 22:36 | 41.46537 | -97.44060 | 24917 ft | 394 kts | 101° |
| 2026-05-07 22:36 | 41.45989 | -97.40494 | 24609 ft | 392 kts | 101° |
| 2026-05-07 22:36 | 41.45443 | -97.36941 | 24299 ft | 390 kts | 101° |
| 2026-05-07 22:36 | 41.44892 | -97.33414 | 23989 ft | 387 kts | 102° |
| 2026-05-07 22:37 | 41.44281 | -97.29932 | 23693 ft | 385 kts | 102° |
| 2026-05-07 22:37 | 41.43706 | -97.26452 | 23379 ft | 384 kts | 102° |
| 2026-05-07 22:37 | 41.43135 | -97.22988 | 23014 ft | 382 kts | 102° |
| 2026-05-07 22:37 | 41.42554 | -97.19593 | 22663 ft | 380 kts | 102° |
| 2026-05-07 22:38 | 41.41957 | -97.16126 | 22316 ft | 378 kts | 102° |
| 2026-05-07 22:38 | 41.41385 | -97.12759 | 21909 ft | 377 kts | 102° |
| 2026-05-07 22:38 | 41.40807 | -97.09359 | 21512 ft | 375 kts | 102° |
| 2026-05-07 22:38 | 41.40228 | -97.05980 | 21120 ft | 373 kts | 102° |
| 2026-05-07 22:39 | 41.39652 | -97.02624 | 20742 ft | 370 kts | 102° |
| 2026-05-07 22:39 | 41.39080 | -96.99296 | 20354 ft | 368 kts | 102° |
| 2026-05-07 22:39 | 41.38513 | -96.95992 | 19981 ft | 365 kts | 102° |
| 2026-05-07 22:39 | 41.37946 | -96.92710 | 19611 ft | 362 kts | 102° |
| 2026-05-07 22:40 | 41.37382 | -96.89446 | 19235 ft | 359 kts | 102° |
| 2026-05-07 22:40 | 41.36824 | -96.86218 | 18876 ft | 356 kts | 102° |
| 2026-05-07 22:40 | 41.36270 | -96.83026 | 18517 ft | 353 kts | 102° |
| 2026-05-07 22:40 | 41.35720 | -96.79860 | 18160 ft | 349 kts | 102° |
| 2026-05-07 22:41 | 41.35176 | -96.76739 | 17751 ft | 345 kts | 102° |
| 2026-05-07 22:41 | 41.34638 | -96.73646 | 17348 ft | 341 kts | 102° |
| 2026-05-07 22:41 | 41.34105 | -96.70594 | 16947 ft | 337 kts | 102° |
| 2026-05-07 22:41 | 41.33575 | -96.67574 | 16548 ft | 333 kts | 102° |
| 2026-05-07 22:42 | 41.33052 | -96.64585 | 16111 ft | 332 kts | 101° |
| 2026-05-07 22:42 | 41.32530 | -96.61602 | 15674 ft | 331 kts | 102° |
| 2026-05-07 22:42 | 41.32002 | -96.58603 | 15244 ft | 334 kts | 102° |
| 2026-05-07 22:42 | 41.31470 | -96.55589 | 14820 ft | 335 kts | 102° |
| 2026-05-07 22:43 | 41.30939 | -96.52575 | 14405 ft | 334 kts | 102° |
| 2026-05-07 22:43 | 41.30409 | -96.49571 | 13971 ft | 333 kts | 102° |
| 2026-05-07 22:43 | 41.29880 | -96.46594 | 13468 ft | 329 kts | 102° |
| 2026-05-07 22:43 | 41.29359 | -96.43649 | 12924 ft | 326 kts | 102° |
| 2026-05-07 22:44 | 41.28841 | -96.40729 | 12402 ft | 323 kts | 102° |
| 2026-05-07 22:44 | 41.28328 | -96.37841 | 11880 ft | 320 kts | 102° |
| 2026-05-07 22:44 | 41.27817 | -96.34978 | 11362 ft | 317 kts | 102° |
| 2026-05-07 22:44 | 41.27310 | -96.32140 | 10853 ft | 313 kts | 103° |
| 2026-05-07 22:45 | 41.26815 | -96.29360 | 10339 ft | 305 kts | 103° |
| 2026-05-07 22:45 | 41.26326 | -96.26634 | 9805 ft | 301 kts | 103° |
| 2026-05-07 22:45 | 41.25820 | -96.23796 | 9179 ft | 296 kts | 103° |
| 2026-05-07 22:45 | 41.25372 | -96.21298 | 8630 ft | 293 kts | 103° |
| 2026-05-07 22:46 | 41.24903 | -96.18676 | 8055 ft | 291 kts | 103° |
| 2026-05-07 22:46 | 41.24438 | -96.16076 | 7482 ft | 288 kts | 103° |
| 2026-05-07 22:46 | 41.23988 | -96.13489 | 6944 ft | 287 kts | 102° |
| 2026-05-07 22:46 | 41.23552 | -96.10932 | 6418 ft | 278 kts | 102° |
| 2026-05-07 22:47 | 41.23124 | -96.08479 | 5990 ft | 266 kts | 102° |
| 2026-05-07 22:47 | 41.22712 | -96.06131 | 5596 ft | 256 kts | 102° |
| 2026-05-07 22:47 | 41.22321 | -96.03898 | 5216 ft | 248 kts | 102° |
| 2026-05-07 22:47 | 41.21922 | -96.01671 | 4832 ft | 243 kts | 102° |
| 2026-05-07 22:48 | 41.21537 | -95.99508 | 4447 ft | 239 kts | 102° |
| 2026-05-07 22:48 | 41.21156 | -95.97363 | 4060 ft | 238 kts | 102° |
| 2026-05-07 22:48 | 41.20781 | -95.95268 | 3716 ft | 234 kts | 102° |
| 2026-05-07 22:48 | 41.20412 | -95.93185 | 3395 ft | 230 kts | 101° |
| 2026-05-07 22:49 | 41.20166 | -95.91128 | 3111 ft | 221 kts | 89° |
| 2026-05-07 22:49 | 41.20487 | -95.89223 | 2988 ft | 206 kts | 60° |
| 2026-05-07 22:49 | 41.21399 | -95.87814 | 2665 ft | 198 kts | 35° |
| 2026-05-07 22:49 | 41.22462 | -95.86701 | 2500 ft | 192 kts | 32° |
| 2026-05-07 22:50 | 41.23521 | -95.85715 | 2373 ft | 178 kts | 27° |
| 2026-05-07 22:50 | 41.24643 | -95.85184 | 2185 ft | 163 kts | 6° |
| 2026-05-07 22:50 | 41.25667 | -95.85085 | 2002 ft | 133 kts | 349° |
| 2026-05-07 22:50 | 41.26485 | -95.85423 | 1771 ft | 114 kts | 328° |
| 2026-05-07 22:51 | 41.27083 | -95.85997 | 1584 ft | 101 kts | 322° |
| 2026-05-07 22:51 | 41.27639 | -95.86515 | 1439 ft | 94 kts | 317° |
| 2026-05-07 22:51 | 41.28165 | -95.87004 | 1307 ft | 90 kts | 318° |
| 2026-05-07 22:51 | 41.28670 | -95.87490 | 1189 ft | 89 kts | 320° |
| 2026-05-07 22:52 | 41.29173 | -95.87960 | 1090 ft | 88 kts | 316° |
| 2026-05-07 22:52 | 41.29665 | -95.88439 | 991 ft | 84 kts | 318° |
| 2026-05-07 22:52 | 41.30084 | -95.88848 | 982 ft | 64 kts | 324° |
| 2026-05-07 22:52 | 41.30266 | -95.88981 | 983 ft | 12 kts | 39° |
| 2026-05-07 22:53 | 41.30315 | -95.88895 | 984 ft | 12 kts | 53° |
| 2026-05-07 22:53 | 41.30341 | -95.88793 | 981 ft | 12 kts | 83° |
| 2026-05-07 22:53 | 41.30348 | -95.88693 | 981 ft | 10 kts | 99° |
| 2026-05-07 22:53 | 41.30340 | -95.88598 | 983 ft | 8 kts | 82° |
| 2026-05-07 22:54 | 41.30332 | -95.88568 | 981 ft | 0 kts | 152° |